createdAt,value
2023-01-21T00:02:34.214Z,92.30
2023-01-21T00:07:37.150Z,93.71
2023-01-21T00:12:40.103Z,93.76
2023-01-21T00:17:44.343Z,93.06
2023-01-21T00:22:47.286Z,93.59
2023-01-21T00:27:50.136Z,93.35
2023-01-21T00:32:54.693Z,94.15
2023-01-21T00:37:57.722Z,93.58
2023-01-21T00:43:00.641Z,92.54
2023-01-21T00:48:05.419Z,92.61
2023-01-21T00:53:08.285Z,92.56
2023-01-21T00:58:11.205Z,91.94
2023-01-21T01:03:15.623Z,91.56
2023-01-21T01:08:18.560Z,92.73
2023-01-21T01:13:21.486Z,92.26
2023-01-21T01:18:26.859Z,93.52
2023-01-21T01:23:30.078Z,94.80
2023-01-21T01:28:33.986Z,95.47
2023-01-21T01:33:38.318Z,95.59
2023-01-21T01:38:41.501Z,95.79
2023-01-21T01:43:54.101Z,95.84
2023-01-21T01:49:04.176Z,96.18
2023-01-21T01:54:08.570Z,96.09
2023-01-21T01:59:12.362Z,95.35
2023-01-21T02:04:21.926Z,95.28
2023-01-21T02:09:29.750Z,96.47
2023-01-21T02:14:34.097Z,95.97
2023-01-21T02:20:30.289Z,94.16
2023-01-21T02:25:56.788Z,93.29
2023-01-21T02:31:21.380Z,94.79
2023-01-21T02:36:36.559Z,96.21
2023-01-21T02:41:49.367Z,97.54
2023-01-21T02:46:56.833Z,97.02
2023-01-21T02:52:01.106Z,96.39
2023-01-21T02:57:04.520Z,96.10
2023-01-21T03:02:20.200Z,97.14
2023-01-21T03:07:32.575Z,95.83
2023-01-21T03:12:41.951Z,95.43
2023-01-21T03:17:50.076Z,95.71
2023-01-21T03:23:00.452Z,96.37
2023-01-21T03:28:07.656Z,96.89
2023-01-21T03:33:12.615Z,96.97
2023-01-21T03:38:22.888Z,97.28
2023-01-21T03:43:26.141Z,97.09
2023-01-21T03:48:37.312Z,97.59
2023-01-21T03:53:41.667Z,96.79
2023-01-21T03:58:44.612Z,97.11
2023-01-21T04:03:47.604Z,97.08
2023-01-21T04:08:52.028Z,96.25
2023-01-21T04:13:54.887Z,96.43
2023-01-21T04:18:58.178Z,97.38
2023-01-21T04:24:02.581Z,97.51
2023-01-21T04:29:05.525Z,97.36
2023-01-21T04:34:08.519Z,97.37
2023-01-21T04:39:12.809Z,97.35
2023-01-21T04:44:15.704Z,98.09
2023-01-21T04:49:18.586Z,97.95
2023-01-21T04:54:22.794Z,98.59
2023-01-21T04:59:25.746Z,98.67
2023-01-21T05:04:28.633Z,97.59
2023-01-21T05:09:32.871Z,97.50
2023-01-21T05:14:35.826Z,95.91
2023-01-21T05:19:38.811Z,95.42
2023-01-21T05:24:43.037Z,94.43
2023-01-21T05:29:45.921Z,95.03
2023-01-21T05:34:48.795Z,96.35
2023-01-21T05:39:53.020Z,97.41
2023-01-21T05:44:56.660Z,98.02
2023-01-21T05:49:59.530Z,98.71
2023-01-21T05:55:04.045Z,97.85
2023-01-21T06:00:08.674Z,96.20
2023-01-21T06:05:11.550Z,95.94
2023-01-21T06:10:16.751Z,97.40
2023-01-21T06:15:20.450Z,97.50
2023-01-21T06:20:23.309Z,97.21
2023-01-21T06:25:27.697Z,97.61
2023-01-21T06:30:30.725Z,97.65
2023-01-21T06:35:33.761Z,97.74
2023-01-21T06:40:37.989Z,97.54
2023-01-21T06:45:40.957Z,98.06
2023-01-21T06:50:43.961Z,98.00
2023-01-21T06:55:48.393Z,98.98
2023-01-21T07:00:51.246Z,97.81
2023-01-21T07:05:54.194Z,97.07
2023-01-21T07:10:58.422Z,95.63
2023-01-21T07:16:02.009Z,95.27
2023-01-21T07:21:05.068Z,94.38
2023-01-21T07:26:09.605Z,95.03
2023-01-21T07:31:13.824Z,94.40
2023-01-21T07:36:16.927Z,94.38
2023-01-21T07:41:21.252Z,94.06
2023-01-21T07:46:24.402Z,94.44
2023-01-21T07:51:27.350Z,94.01
2023-01-21T07:56:31.602Z,94.76
2023-01-21T08:01:34.707Z,95.03
2023-01-21T08:06:41.317Z,95.60
2023-01-21T08:11:45.838Z,93.75
2023-01-21T08:16:48.747Z,94.68
2023-01-21T08:21:52.337Z,95.39
2023-01-21T08:26:58.658Z,95.41
2023-01-21T08:32:01.589Z,95.29
2023-01-21T08:37:04.557Z,95.75
2023-01-21T08:42:08.779Z,95.01
2023-01-21T08:47:11.805Z,95.44
2023-01-21T08:52:15.796Z,95.91
2023-01-21T08:57:20.099Z,96.56
2023-01-21T09:02:23.120Z,95.61
2023-01-21T09:07:26.020Z,95.78
2023-01-21T09:12:30.255Z,95.34
2023-01-21T09:17:34.215Z,94.95
2023-01-21T09:22:37.146Z,95.15
2023-01-21T09:27:41.367Z,94.92
2023-01-21T09:32:44.249Z,93.83
2023-01-21T09:37:48.173Z,93.72
2023-01-21T09:42:52.411Z,93.04
2023-01-21T09:47:57.743Z,92.79
2023-01-21T09:53:05.757Z,93.18
2023-01-21T09:58:21.718Z,93.52
2023-01-21T10:03:32.815Z,93.05
2023-01-21T10:08:48.998Z,92.43
2023-01-21T10:14:05.785Z,93.34
2023-01-21T10:19:14.899Z,92.21
2023-01-21T10:24:22.176Z,92.36
2023-01-21T10:29:27.294Z,91.24
2023-01-21T10:34:32.369Z,92.14
2023-01-21T10:39:45.248Z,92.06
2023-01-21T10:44:58.004Z,91.70
2023-01-21T10:50:05.348Z,91.78
2023-01-21T10:55:25.298Z,91.90
2023-01-21T11:00:33.957Z,91.80
2023-01-21T11:05:39.102Z,91.26
2023-01-21T11:10:42.086Z,91.30
2023-01-21T11:15:51.401Z,90.62
2023-01-21T11:20:58.211Z,90.94
2023-01-21T11:26:08.765Z,90.03
2023-01-21T11:31:16.263Z,90.03
2023-01-21T11:36:21.067Z,90.50
2023-01-21T11:41:25.090Z,90.10
2023-01-21T11:46:36.734Z,89.20
2023-01-21T11:51:42.237Z,89.81
2023-01-21T11:56:55.659Z,90.72
2023-01-21T12:02:06.650Z,91.81
2023-01-21T12:07:19.726Z,91.15
2023-01-21T12:12:35.926Z,90.18
2023-01-21T12:17:52.042Z,91.17
2023-01-21T12:23:07.976Z,91.88
2023-01-21T12:28:47.455Z,91.07
2023-01-21T12:33:59.065Z,91.22
2023-01-21T12:39:19.618Z,91.28
2023-01-21T12:44:32.689Z,91.07
2023-01-21T12:49:56.455Z,91.34
2023-01-21T12:55:06.194Z,90.99
2023-01-21T13:00:18.461Z,91.46
2023-01-21T13:05:31.192Z,90.38
2023-01-21T13:10:38.284Z,91.42
2023-01-21T13:15:44.660Z,92.05
2023-01-21T13:20:53.765Z,92.40
2023-01-21T13:26:04.266Z,91.21
2023-01-21T13:31:13.416Z,91.10
2023-01-21T13:36:33.528Z,90.29
2023-01-21T13:41:50.686Z,91.84
2023-01-21T13:47:04.990Z,92.51
2023-01-21T13:52:15.999Z,92.97
2023-01-21T13:57:45.792Z,93.15
2023-01-21T14:02:56.959Z,94.87
2023-01-21T14:08:07.168Z,95.42
2023-01-21T14:13:39.893Z,96.64
2023-01-21T14:18:58.822Z,97.30
2023-01-21T14:24:19.344Z,97.14
2023-01-21T14:29:30.854Z,97.88
2023-01-21T14:34:42.124Z,96.96
2023-01-21T14:39:59.643Z,97.71
2023-01-21T14:45:06.088Z,98.25
2023-01-21T14:50:10.245Z,98.61
2023-01-21T14:55:28.732Z,99.35
2023-01-21T15:00:33.860Z,99.28
2023-01-21T15:05:38.099Z,98.93
2023-01-21T15:10:42.608Z,99.01
2023-01-21T15:16:05.384Z,99.34
2023-01-21T15:21:36.347Z,99.75
2023-01-21T15:26:42.323Z,99.12
2023-01-21T15:31:46.125Z,100.00
2023-01-21T15:36:53.319Z,99.84
2023-01-21T15:42:15.979Z,99.89
2023-01-21T15:47:50.694Z,100.00
2023-01-21T15:53:21.378Z,100.00
2023-01-21T15:58:38.950Z,100.00
2023-01-21T16:03:47.647Z,100.00
2023-01-21T16:09:03.060Z,100.00
2023-01-21T16:14:18.796Z,99.97
2023-01-21T16:19:24.021Z,100.00
2023-01-21T16:24:29.967Z,100.00
2023-01-21T16:29:39.368Z,100.00
2023-01-21T16:34:44.063Z,99.92
2023-01-21T16:39:47.035Z,99.75
2023-01-21T16:44:52.032Z,100.00
2023-01-21T16:49:54.913Z,99.80
2023-01-21T16:54:57.846Z,100.00
2023-01-21T17:00:02.773Z,100.00
2023-01-21T17:05:07.013Z,100.00
2023-01-21T17:10:21.547Z,100.00
2023-01-21T17:15:32.113Z,100.00
2023-01-21T17:20:42.299Z,100.00
2023-01-21T17:25:49.926Z,100.00
2023-01-21T17:31:09.753Z,100.00
2023-01-21T17:36:14.241Z,100.00
2023-01-21T17:41:25.710Z,100.00
2023-01-21T17:46:30.854Z,100.00
2023-01-21T17:51:35.141Z,99.94
2023-01-21T17:56:40.336Z,99.45
2023-01-21T18:01:44.628Z,100.00
2023-01-21T18:06:47.540Z,99.06
2023-01-21T18:11:52.928Z,99.97
2023-01-21T18:16:57.220Z,100.00
2023-01-21T18:22:00.968Z,100.00
2023-01-21T18:27:04.146Z,100.00
2023-01-21T18:32:11.668Z,100.00
2023-01-21T18:37:16.656Z,100.00
2023-01-21T18:42:19.614Z,100.00
2023-01-21T18:47:23.856Z,100.00
2023-01-21T18:52:26.834Z,100.00
2023-01-21T18:57:29.757Z,100.00
2023-01-21T19:02:34.091Z,100.00
2023-01-21T19:07:37.132Z,100.00
2023-01-21T19:12:40.106Z,100.00
2023-01-21T19:17:45.932Z,99.94
2023-01-21T19:22:49.727Z,100.00
2023-01-21T19:27:55.430Z,100.00
2023-01-21T19:33:01.753Z,100.00
2023-01-21T19:38:10.950Z,100.00
2023-01-21T19:43:14.489Z,100.00
2023-01-21T19:48:20.892Z,100.00
2023-01-21T19:53:24.071Z,100.00
2023-01-21T19:58:29.617Z,100.00
2023-01-21T20:03:33.895Z,99.61
2023-01-21T20:08:36.774Z,99.96
2023-01-21T20:13:39.722Z,100.00
2023-01-21T20:18:46.205Z,100.00
2023-01-21T20:23:49.124Z,99.42
2023-01-21T20:28:54.519Z,99.10
2023-01-21T20:33:58.934Z,99.42
2023-01-21T20:39:01.845Z,99.92
2023-01-21T20:44:04.858Z,99.35
2023-01-21T20:49:12.233Z,99.77
2023-01-21T20:54:15.134Z,99.44
2023-01-21T20:59:18.427Z,98.56
2023-01-21T21:04:24.843Z,98.81
2023-01-21T21:09:27.807Z,99.04
2023-01-21T21:14:30.718Z,98.82
2023-01-21T21:19:34.914Z,98.53
2023-01-21T21:24:37.825Z,99.13
2023-01-21T21:29:40.749Z,98.78
2023-01-21T21:34:45.001Z,98.38
2023-01-21T21:39:47.862Z,99.93
2023-01-21T21:44:50.778Z,100.00
2023-01-21T21:49:55.070Z,99.99
2023-01-21T21:54:57.954Z,99.53
2023-01-21T22:00:00.867Z,99.41
2023-01-21T22:05:05.621Z,99.51
2023-01-21T22:10:09.680Z,99.11
2023-01-21T22:15:12.845Z,98.81
2023-01-21T22:20:17.164Z,97.60
2023-01-21T22:25:20.496Z,97.26
2023-01-21T22:30:25.131Z,96.33
2023-01-21T22:35:29.460Z,96.60
2023-01-21T22:40:33.999Z,96.41
2023-01-21T22:45:37.031Z,96.58
2023-01-21T22:50:44.424Z,97.35
2023-01-21T22:55:53.990Z,97.01
2023-01-21T23:00:57.650Z,98.00
2023-01-21T23:06:06.464Z,98.70
2023-01-21T23:11:11.544Z,98.10
2023-01-21T23:16:17.223Z,97.18
2023-01-21T23:21:23.236Z,96.33
2023-01-21T23:26:26.126Z,96.41
2023-01-21T23:31:29.146Z,96.54
2023-01-21T23:36:33.543Z,95.62
2023-01-21T23:41:36.421Z,96.75
2023-01-21T23:46:39.450Z,97.24
2023-01-21T23:51:43.696Z,98.05
2023-01-21T23:56:46.587Z,97.96
